Time;durP1;ratioP1;P1;durP2;ratioP2;P2;SDS_P1;SDS_P2;PMS_P1;PMS_P2;Temp;Humidity;BMP_temperature;BMP_pressure;BME280_temperature;BME280_humidity;BME280_pressure;Samples;Min_cycle;Max_cycle;Signal;HPM_P1;HPM_P2
2023/01/20 00:01:27;;;;;;;8.10;4.97;;;-1.10;99.90;;;;;;5068063;28;20041;-76
2023/01/20 00:03:54;;;;;;;8.80;5.13;;;-1.10;99.90;;;;;;5071834;28;20437;-75
2023/01/20 00:06:21;;;;;;;10.03;5.37;;;-1.10;99.90;;;;;;5071811;28;20125;-76
2023/01/20 00:08:51;;;;;;;9.67;5.23;;;-1.10;99.90;;;;;;5067897;28;20505;-75
2023/01/20 00:11:18;;;;;;;12.40;5.60;;;-1.10;99.90;;;;;;5068251;28;20459;-76
2023/01/20 00:13:43;;;;;;;10.37;5.23;;;-1.00;99.90;;;;;;5053993;28;20086;-76
2023/01/20 00:16:10;;;;;;;9.97;5.60;;;-0.90;99.90;;;;;;5075462;28;20052;-78
2023/01/20 00:18:37;;;;;;;13.13;5.60;;;-0.90;99.90;;;;;;5070745;28;20076;-75
2023/01/20 00:21:11;;;;;;;8.57;4.93;;;-0.90;99.90;;;;;;5069527;28;20490;-78
2023/01/20 00:23:38;;;;;;;11.20;4.97;;;-0.90;99.90;;;;;;5069168;28;20033;-76
2023/01/20 00:26:05;;;;;;;9.13;5.87;;;-0.80;99.90;;;;;;5071050;28;20040;-75
2023/01/20 00:28:32;;;;;;;10.47;5.27;;;-0.80;99.90;;;;;;5070137;28;20051;-79
2023/01/20 00:30:58;;;;;;;9.87;5.20;;;-0.80;99.90;;;;;;5070743;28;20110;-75
2023/01/20 00:33:23;;;;;;;7.33;4.43;;;-0.80;99.90;;;;;;5069559;28;20425;-76
2023/01/20 00:35:49;;;;;;;8.43;4.57;;;-0.90;99.90;;;;;;5071054;28;20036;-75
2023/01/20 00:38:16;;;;;;;11.57;5.00;;;-1.00;99.90;;;;;;5071023;28;20042;-76
2023/01/20 00:40:42;;;;;;;8.90;4.87;;;-1.00;99.90;;;;;;5070484;28;20525;-76
2023/01/20 00:43:07;;;;;;;9.90;4.97;;;-1.10;99.90;;;;;;5070722;28;20045;-75
2023/01/20 00:45:33;;;;;;;12.93;5.20;;;-1.10;99.90;;;;;;5070807;28;20049;-77
2023/01/20 00:47:59;;;;;;;10.40;5.60;;;-1.10;99.90;;;;;;5070317;28;20051;-75
2023/01/20 00:50:24;;;;;;;13.03;5.90;;;-1.20;99.90;;;;;;5070960;28;20067;-75
2023/01/20 00:52:50;;;;;;;9.83;6.80;;;-1.10;99.90;;;;;;5066468;28;20036;-76
2023/01/20 00:55:15;;;;;;;12.67;6.93;;;-1.10;99.90;;;;;;5070343;28;20044;-76
2023/01/20 00:57:41;;;;;;;19.40;9.43;;;-1.20;99.90;;;;;;5068872;28;20139;-76
2023/01/20 01:00:07;;;;;;;19.70;9.67;;;-1.10;99.90;;;;;;5069292;28;20121;-76
2023/01/20 01:02:38;;;;;;;30.77;11.47;;;-1.20;99.90;;;;;;5070763;28;20051;-76
2023/01/20 01:05:04;;;;;;;24.83;10.80;;;-1.00;99.90;;;;;;5071070;28;20129;-75
2023/01/20 01:07:30;;;;;;;39.23;13.00;;;-1.30;99.90;;;;;;5069850;28;20056;-76
2023/01/20 01:09:55;;;;;;;63.23;16.17;;;-1.20;99.90;;;;;;5069745;28;20045;-75
2023/01/20 01:12:21;;;;;;;88.63;17.87;;;-1.30;99.90;;;;;;5069329;28;20515;-75
2023/01/20 01:14:47;;;;;;;125.73;20.73;;;-1.20;99.90;;;;;;5069774;28;20454;-75
2023/01/20 01:17:12;;;;;;;101.67;20.43;;;-1.20;99.90;;;;;;5069625;28;20044;-75
2023/01/20 01:19:38;;;;;;;128.07;22.93;;;-1.20;99.90;;;;;;5070571;28;20097;-76
2023/01/20 01:22:04;;;;;;;107.03;22.20;;;-1.20;99.90;;;;;;5070146;28;20040;-75
2023/01/20 01:24:30;;;;;;;186.33;27.57;;;-1.10;99.90;;;;;;5069827;28;20040;-75
2023/01/20 01:26:55;;;;;;;191.00;29.37;;;-1.20;99.90;;;;;;5069834;28;20056;-76
2023/01/20 01:29:21;;;;;;;253.37;35.23;;;-1.10;99.90;;;;;;5069704;28;20043;-75
2023/01/20 01:31:46;;;;;;;218.07;32.83;;;-1.10;99.90;;;;;;5069585;28;20123;-78
2023/01/20 01:34:12;;;;;;;370.80;44.93;;;-1.10;99.90;;;;;;5069905;28;20490;-75
2023/01/20 01:36:38;;;;;;;360.13;39.77;;;-1.10;99.90;;;;;;5068910;28;20441;-76
2023/01/20 01:39:03;;;;;;;422.17;44.50;;;-1.10;99.90;;;;;;5068348;28;20040;-79
2023/01/20 01:41:29;;;;;;;402.40;40.03;;;-1.20;99.90;;;;;;5068937;28;20044;-75
2023/01/20 01:44:02;;;;;;;331.67;37.03;;;-1.10;99.90;;;;;;5068910;28;20044;-76
2023/01/20 01:46:28;;;;;;;449.73;76.20;;;-1.10;99.90;;;;;;5066585;28;20045;-75
2023/01/20 01:48:56;;;;;;;369.23;46.13;;;-1.20;99.90;;;;;;5069413;28;20482;-75
2023/01/20 01:51:38;;;;;;;349.53;59.27;;;-1.20;99.90;;;;;;5068654;28;20047;-74
2023/01/20 01:54:16;;;;;;;294.90;41.83;;;-1.20;99.90;;;;;;5065239;28;20087;-76
2023/01/20 01:56:43;;;;;;;270.07;38.47;;;-1.20;99.90;;;;;;5067741;28;20083;-75
2023/01/20 01:59:11;;;;;;;345.90;45.00;;;-1.30;99.90;;;;;;5069232;28;20553;-75
2023/01/20 02:01:39;;;;;;;251.80;38.80;;;-1.30;99.90;;;;;;5068039;28;20045;-75
2023/01/20 02:04:11;;;;;;;224.73;36.60;;;-1.30;99.90;;;;;;5068050;28;20043;-76
2023/01/20 02:06:44;;;;;;;161.70;34.10;;;-1.20;99.90;;;;;;5068210;28;20511;-75
2023/01/20 02:09:10;;;;;;;108.93;29.80;;;-1.40;99.90;;;;;;5066339;28;20059;-79
2023/01/20 02:11:40;;;;;;;75.90;27.77;;;-1.40;99.90;;;;;;5068997;28;20160;-77
2023/01/20 02:14:07;;;;;;;85.57;27.20;;;-1.40;99.90;;;;;;5084501;28;20108;-76
2023/01/20 02:16:52;;;;;;;66.90;26.47;;;-1.40;99.90;;;;;;5068892;28;20117;-75
2023/01/20 02:20:09;;;;;;;68.93;25.73;;;-1.40;99.90;;;;;;5051437;28;20048;-76
2023/01/20 02:22:49;;;;;;;62.77;24.40;;;-1.40;99.90;;;;;;5058176;28;20387;-76
2023/01/20 02:25:24;;;;;;;58.80;24.83;;;-1.40;99.90;;;;;;5068528;28;20055;-75
2023/01/20 02:28:08;;;;;;;51.23;21.73;;;-1.50;99.90;;;;;;5065972;28;20375;-76
2023/01/20 02:30:55;;;;;;;59.77;23.60;;;-1.50;99.90;;;;;;5068095;28;20486;-76
2023/01/20 02:33:28;;;;;;;47.73;21.27;;;-1.50;99.90;;;;;;5064114;28;20517;-76
2023/01/20 02:36:10;;;;;;;54.33;22.50;;;-1.60;99.90;;;;;;5066224;28;20036;-75
2023/01/20 02:38:59;;;;;;;49.77;21.57;;;-1.60;99.90;;;;;;5068345;28;20051;-75
2023/01/20 02:41:30;;;;;;;45.13;20.23;;;-1.60;99.90;;;;;;5067342;28;20056;-76
2023/01/20 02:44:07;;;;;;;42.05;20.98;;;-1.60;99.90;;;;;;5069053;28;20048;-76
2023/01/20 02:46:59;;;;;;;47.40;20.73;;;-1.60;99.90;;;;;;5068410;28;20393;-76
2023/01/20 02:49:25;;;;;;;48.87;20.97;;;-1.50;99.90;;;;;;5054861;28;20075;-75
2023/01/20 02:51:57;;;;;;;49.80;21.47;;;-1.50;99.90;;;;;;5067762;28;20131;-75
2023/01/20 02:54:27;;;;;;;43.93;20.80;;;-1.50;99.90;;;;;;5063027;28;20049;-75
2023/01/20 02:56:55;;;;;;;47.27;21.17;;;-1.50;99.90;;;;;;5063712;28;20043;-77
2023/01/20 02:59:25;;;;;;;48.10;22.73;;;-1.50;99.90;;;;;;5067866;28;20048;-77
2023/01/20 03:02:01;;;;;;;48.93;21.97;;;-1.50;99.90;;;;;;5080470;28;20052;-78
2023/01/20 03:04:40;;;;;;;48.93;22.80;;;-1.50;99.90;;;;;;5067694;28;20041;-76
2023/01/20 03:07:08;;;;;;;52.47;23.87;;;-1.40;99.90;;;;;;5065714;28;20055;-75
2023/01/20 03:09:39;;;;;;;51.87;23.77;;;-1.40;99.90;;;;;;5068835;28;20387;-74
2023/01/20 03:12:24;;;;;;;45.00;19.55;;;-1.40;99.90;;;;;;5067787;28;20041;-75
2023/01/20 03:14:51;;;;;;;46.80;23.47;;;-1.40;99.90;;;;;;5068664;28;20110;-76
2023/01/20 03:17:18;;;;;;;47.23;22.53;;;-1.40;99.90;;;;;;5067673;28;20048;-75
2023/01/20 03:19:44;;;;;;;53.93;24.30;;;-1.50;99.90;;;;;;5068511;28;20048;-74
2023/01/20 03:22:10;;;;;;;51.07;23.10;;;-1.50;99.90;;;;;;5066543;28;20520;-75
2023/01/20 03:24:37;;;;;;;52.83;24.43;;;-1.50;99.90;;;;;;5068344;28;20036;-75
2023/01/20 03:27:04;;;;;;;54.07;25.50;;;-1.40;99.90;;;;;;5067554;28;20047;-75
2023/01/20 03:29:30;;;;;;;57.03;25.67;;;-1.40;99.90;;;;;;5068479;28;20093;-74
2023/01/20 03:32:01;;;;;;;54.33;26.53;;;-1.40;99.90;;;;;;5066951;28;20044;-78
2023/01/20 03:34:32;;;;;;;54.23;25.23;;;-1.40;99.90;;;;;;5051253;28;20056;-75
2023/01/20 03:36:59;;;;;;;60.33;28.37;;;-1.40;99.90;;;;;;5065391;28;20066;-75
2023/01/20 03:39:26;;;;;;;75.07;31.67;;;-1.30;99.90;;;;;;5071981;28;20044;-75
2023/01/20 03:42:20;;;;;;;78.43;32.60;;;-1.30;99.90;;;;;;5071183;28;20462;-74
2023/01/20 03:44:54;;;;;;;93.90;35.43;;;-1.20;99.90;;;;;;5071217;28;20312;-75
2023/01/20 03:48:06;;;;;;;108.30;37.20;;;-1.20;99.90;;;;;;5070184;28;20088;-75
2023/01/20 03:50:58;;;;;;;91.82;31.35;;;-1.10;99.90;;;;;;5070023;28;20036;-76
2023/01/20 03:53:45;;;;;;;137.57;40.67;;;-1.10;99.90;;;;;;5069413;28;20028;-75
2023/01/20 03:56:27;;;;;;;139.50;42.40;;;-1.00;99.90;;;;;;5071352;28;20057;-75
2023/01/20 03:58:54;;;;;;;137.37;42.23;;;-1.00;99.90;;;;;;5070288;28;20052;-75
2023/01/20 04:01:25;;;;;;;130.67;42.37;;;-0.90;99.90;;;;;;5068415;28;20075;-76
2023/01/20 04:03:53;;;;;;;134.40;45.25;;;-0.90;99.90;;;;;;5085489;28;20102;-76
2023/01/20 04:06:22;;;;;;;146.33;46.77;;;-0.80;99.90;;;;;;5087217;28;20076;-75
2023/01/20 04:08:58;;;;;;;164.67;50.27;;;-0.80;99.90;;;;;;5070400;28;20477;-75
2023/01/20 04:11:26;;;;;;;152.73;46.37;;;-0.80;99.90;;;;;;5051325;28;20055;-74
2023/01/20 04:13:51;;;;;;;178.23;50.47;;;-0.80;99.90;;;;;;5068755;28;20399;-75
2023/01/20 04:16:18;;;;;;;169.63;49.63;;;-0.80;99.90;;;;;;5069869;28;20049;-75
2023/01/20 04:18:50;;;;;;;167.33;48.70;;;-0.70;99.90;;;;;;5069743;28;20344;-78
2023/01/20 04:21:44;;;;;;;197.13;51.67;;;-0.70;99.90;;;;;;5087627;28;20094;-74
2023/01/20 04:24:40;;;;;;;203.50;52.13;;;-0.70;99.90;;;;;;5070102;28;20045;-76
2023/01/20 04:27:05;;;;;;;225.30;54.40;;;-0.70;99.90;;;;;;5069421;28;20098;-74
2023/01/20 04:29:31;;;;;;;212.10;54.10;;;-0.60;99.90;;;;;;5069860;28;20044;-76
2023/01/20 04:32:01;;;;;;;224.17;52.40;;;-0.60;99.90;;;;;;5070660;28;20032;-75
2023/01/20 04:34:27;;;;;;;274.63;56.87;;;-0.60;99.90;;;;;;5071960;28;20070;-74
2023/01/20 04:36:53;;;;;;;254.57;58.13;;;-0.50;99.90;;;;;;5052702;28;20364;-75
2023/01/20 04:39:19;;;;;;;263.43;54.90;;;-0.60;99.90;;;;;;5070356;28;20052;-77
2023/01/20 04:41:46;;;;;;;236.17;53.73;;;-0.60;99.90;;;;;;5071144;28;20386;-75
2023/01/20 04:44:11;;;;;;;259.93;58.67;;;-0.50;99.90;;;;;;5071164;28;20047;-75
2023/01/20 04:46:37;;;;;;;247.93;57.70;;;-0.60;99.90;;;;;;5070687;28;20420;-75
2023/01/20 04:49:02;;;;;;;199.90;51.63;;;-0.60;99.90;;;;;;5069339;28;20068;-75
2023/01/20 04:51:28;;;;;;;215.53;55.00;;;-0.50;99.90;;;;;;5070897;28;20040;-75
2023/01/20 04:53:57;;;;;;;189.00;48.47;;;-0.60;99.90;;;;;;5070169;28;20045;-75
2023/01/20 04:56:23;;;;;;;219.40;52.90;;;-0.60;99.90;;;;;;5067731;28;20041;-75
2023/01/20 04:58:49;;;;;;;169.53;44.50;;;-0.60;99.90;;;;;;5069381;28;20106;-78
2023/01/20 05:01:15;;;;;;;193.53;58.20;;;-0.20;99.90;;;;;;5070412;28;20110;-76
2023/01/20 05:03:40;;;;;;;208.80;60.80;;;-0.60;99.90;;;;;;5070928;28;20478;-76
2023/01/20 05:06:08;;;;;;;176.10;44.00;;;-0.60;99.90;;;;;;5067558;28;20466;-75
2023/01/20 05:08:34;;;;;;;190.33;51.57;;;-0.70;99.90;;;;;;5069479;28;20068;-76
2023/01/20 05:10:59;;;;;;;190.33;47.40;;;-0.60;99.90;;;;;;5072063;28;20090;-75
2023/01/20 05:13:25;;;;;;;164.23;44.13;;;-0.70;99.90;;;;;;5070486;28;20032;-76
2023/01/20 05:15:51;;;;;;;167.67;45.17;;;-0.60;99.90;;;;;;5070685;28;20512;-75
2023/01/20 05:18:16;;;;;;;177.57;46.17;;;-0.70;99.90;;;;;;5069594;28;20520;-74
2023/01/20 05:20:47;;;;;;;184.83;46.83;;;-0.80;99.90;;;;;;5070753;28;20390;-75
2023/01/20 05:23:12;;;;;;;164.77;46.20;;;-0.80;99.90;;;;;;5070047;28;20073;-75
2023/01/20 05:25:38;;;;;;;164.33;48.13;;;-0.80;99.90;;;;;;5070534;28;20075;-75
2023/01/20 05:28:04;;;;;;;188.40;50.33;;;-0.80;99.90;;;;;;5069328;28;20559;-75
2023/01/20 05:30:30;;;;;;;158.13;46.23;;;-0.40;99.90;;;;;;5068732;28;20041;-75
2023/01/20 05:32:56;;;;;;;151.67;42.60;;;-0.80;99.90;;;;;;5070007;28;20097;-75
2023/01/20 05:35:21;;;;;;;162.73;45.83;;;-0.80;99.90;;;;;;5069661;28;20044;-75
2023/01/20 05:37:47;;;;;;;140.53;43.57;;;-0.80;99.90;;;;;;5069260;28;20044;-74
2023/01/20 05:40:13;;;;;;;131.57;43.33;;;-0.80;99.90;;;;;;5066925;28;20048;-75
2023/01/20 05:42:39;;;;;;;145.73;42.17;;;-0.80;99.90;;;;;;5066764;28;20059;-76
2023/01/20 05:45:05;;;;;;;130.40;42.30;;;-0.70;99.90;;;;;;5067187;28;20497;-75
2023/01/20 05:47:31;;;;;;;143.73;43.27;;;-0.70;99.90;;;;;;5066917;28;20040;-75
2023/01/20 05:49:57;;;;;;;135.50;45.53;;;-0.70;99.90;;;;;;5068567;28;20179;-76
2023/01/20 05:52:22;;;;;;;130.70;41.33;;;-0.70;99.90;;;;;;5068330;28;20185;-76
2023/01/20 05:54:48;;;;;;;129.60;41.10;;;-0.70;99.90;;;;;;5067367;28;20033;-75
2023/01/20 05:57:17;;;;;;;139.63;40.53;;;-0.70;99.90;;;;;;5068417;28;20044;-76
2023/01/20 05:59:46;;;;;;;135.77;44.03;;;-0.70;99.90;;;;;;5069527;28;20052;-75
2023/01/20 06:02:12;;;;;;;136.10;45.40;;;-0.70;99.90;;;;;;5068536;28;20052;-75
2023/01/20 06:04:38;;;;;;;136.23;41.13;;;-0.70;99.90;;;;;;5068241;28;20040;-76
2023/01/20 06:07:18;;;;;;;123.75;42.53;;;-0.60;99.90;;;;;;5043096;28;20101;-75
2023/01/20 06:09:44;;;;;;;133.83;43.00;;;-0.70;99.90;;;;;;5068071;28;20060;-75
2023/01/20 06:12:10;;;;;;;135.40;43.87;;;-0.60;99.90;;;;;;5066702;28;20048;-76
2023/01/20 06:14:35;;;;;;;138.23;42.50;;;-0.60;99.90;;;;;;5066862;28;20127;-75
2023/01/20 06:17:01;;;;;;;141.47;44.57;;;-0.60;99.90;;;;;;5066012;28;20044;-78
2023/01/20 06:19:27;;;;;;;149.27;45.67;;;-0.60;99.90;;;;;;5066619;28;20052;-78
2023/01/20 06:21:52;;;;;;;134.83;48.67;;;-0.60;99.90;;;;;;5066968;28;20051;-75
2023/01/20 06:24:18;;;;;;;140.60;44.53;;;-0.60;99.90;;;;;;5068874;28;20451;-74
2023/01/20 06:26:44;;;;;;;139.13;43.13;;;-0.60;99.90;;;;;;5068746;28;20048;-76
2023/01/20 06:29:09;;;;;;;148.07;44.00;;;-0.60;99.90;;;;;;5068248;28;20044;-75
2023/01/20 06:31:35;;;;;;;152.57;45.00;;;-0.60;99.90;;;;;;5068808;28;20047;-75
2023/01/20 06:34:01;;;;;;;146.37;45.37;;;-0.10;99.90;;;;;;5071355;28;20405;-77
2023/01/20 06:36:26;;;;;;;159.83;49.53;;;-0.30;99.90;;;;;;5068208;28;20044;-75
2023/01/20 06:38:52;;;;;;;161.37;50.10;;;-0.60;99.90;;;;;;5065596;28;20040;-78
2023/01/20 06:41:19;;;;;;;146.63;46.83;;;-0.60;99.90;;;;;;5068643;28;20052;-75
2023/01/20 06:43:45;;;;;;;148.17;49.10;;;-0.70;99.90;;;;;;5069314;28;20387;-77
2023/01/20 06:46:14;;;;;;;142.17;43.97;;;-0.60;99.90;;;;;;5068886;28;20106;-75
2023/01/20 06:48:41;;;;;;;140.57;45.23;;;-0.70;99.90;;;;;;5066350;28;20037;-76
2023/01/20 06:51:16;;;;;;;139.03;47.20;;;-0.60;99.90;;;;;;5068513;28;20052;-75
2023/01/20 06:53:42;;;;;;;144.70;46.37;;;-0.60;99.90;;;;;;5065469;28;20071;-75
2023/01/20 06:56:12;;;;;;;137.87;48.90;;;-0.60;99.90;;;;;;5068614;28;20067;-76
2023/01/20 06:58:38;;;;;;;155.67;51.23;;;-0.60;99.90;;;;;;5067124;28;20111;-78
2023/01/20 07:01:07;;;;;;;180.43;59.70;;;-0.60;99.90;;;;;;5067787;28;20494;-76
2023/01/20 07:03:34;;;;;;;197.07;63.63;;;-0.60;99.90;;;;;;5056447;28;20040;-75
2023/01/20 07:06:02;;;;;;;192.50;61.33;;;-0.60;99.90;;;;;;5057862;28;20048;-75
2023/01/20 07:08:28;;;;;;;170.03;56.23;;;-0.60;99.90;;;;;;5065412;28;20049;-78
2023/01/20 07:10:55;;;;;;;144.43;53.53;;;-0.60;99.90;;;;;;5063585;28;20120;-78
2023/01/20 07:13:20;;;;;;;185.63;60.20;;;-0.60;99.90;;;;;;5059535;28;20060;-75
2023/01/20 07:15:46;;;;;;;151.33;50.60;;;-0.60;99.90;;;;;;5060396;28;20035;-75
2023/01/20 07:18:12;;;;;;;196.10;70.20;;;-0.60;99.90;;;;;;5059959;28;20482;-75
2023/01/20 07:20:37;;;;;;;226.83;77.80;;;-0.60;99.90;;;;;;5055628;28;20041;-78
2023/01/20 07:23:04;;;;;;;165.67;61.03;;;-0.50;99.90;;;;;;5062080;28;20033;-76
2023/01/20 07:25:30;;;;;;;147.17;55.27;;;-0.60;99.90;;;;;;5060649;28;20072;-75
2023/01/20 07:27:58;;;;;;;200.27;70.57;;;-0.60;99.90;;;;;;5056977;28;20734;-75
2023/01/20 07:30:24;;;;;;;151.00;60.13;;;-0.50;99.90;;;;;;5060323;28;20040;-74
2023/01/20 07:32:50;;;;;;;124.97;52.50;;;-0.60;99.90;;;;;;5066824;28;20037;-75
2023/01/20 07:35:16;;;;;;;132.63;55.03;;;-0.60;99.90;;;;;;5067094;28;20076;-74
2023/01/20 07:37:41;;;;;;;124.80;65.27;;;-0.70;99.90;;;;;;5047688;28;20128;-77
2023/01/20 07:40:08;;;;;;;121.20;47.93;;;-0.60;99.90;;;;;;5067138;28;20052;-78
2023/01/20 07:42:37;;;;;;;119.37;50.73;;;-0.60;99.90;;;;;;5049813;28;20667;-75
2023/01/20 07:45:04;;;;;;;115.60;45.50;;;-0.60;99.90;;;;;;5048337;28;20032;-79
2023/01/20 07:47:29;;;;;;;114.57;43.77;;;-0.60;99.90;;;;;;5045551;28;20056;-76
2023/01/20 07:49:55;;;;;;;109.37;45.10;;;-0.50;99.90;;;;;;5047190;28;20040;-75
2023/01/20 07:52:21;;;;;;;113.13;45.03;;;-0.50;99.90;;;;;;5047509;28;20051;-76
2023/01/20 07:54:46;;;;;;;114.60;47.03;;;-0.50;99.90;;;;;;5047855;28;20040;-75
2023/01/20 07:57:12;;;;;;;111.70;46.23;;;-0.50;99.90;;;;;;5045774;28;20044;-76
2023/01/20 07:59:38;;;;;;;109.63;45.00;;;-0.50;99.90;;;;;;5046405;28;20044;-75
2023/01/20 08:02:03;;;;;;;108.23;44.93;;;-0.50;99.90;;;;;;5045433;28;20044;-77
2023/01/20 08:04:29;;;;;;;104.03;44.90;;;-0.50;99.90;;;;;;5047748;28;20168;-76
2023/01/20 08:06:55;;;;;;;104.93;43.83;;;-0.50;99.90;;;;;;5047814;28;20487;-75
2023/01/20 08:09:20;;;;;;;104.43;46.90;;;-0.50;99.90;;;;;;5048429;28;20538;-75
2023/01/20 08:11:47;;;;;;;106.80;43.43;;;-0.50;99.90;;;;;;5048189;28;20883;-75
2023/01/20 08:14:12;;;;;;;93.17;43.37;;;-0.30;99.90;;;;;;5047204;28;20045;-80
2023/01/20 08:16:38;;;;;;;103.90;43.00;;;-0.40;99.90;;;;;;5047111;28;20133;-79
2023/01/20 08:19:04;;;;;;;106.80;44.03;;;0.00;99.90;;;;;;5046998;28;20436;-75
2023/01/20 08:21:31;;;;;;;99.73;52.80;;;-0.40;99.90;;;;;;5047042;28;20078;-78
2023/01/20 08:23:59;;;;;;;109.30;48.17;;;-0.40;99.90;;;;;;5048949;28;20052;-77
2023/01/20 08:26:27;;;;;;;107.43;46.13;;;-0.40;99.90;;;;;;5049889;28;20044;-76
2023/01/20 08:28:53;;;;;;;105.27;45.23;;;-0.40;99.90;;;;;;5047988;28;20106;-77
2023/01/20 08:31:21;;;;;;;96.17;43.40;;;-0.30;99.90;;;;;;5049394;28;20103;-78
2023/01/20 08:33:47;;;;;;;104.10;46.00;;;-0.20;99.90;;;;;;5052211;28;20067;-75
2023/01/20 08:36:17;;;;;;;102.93;44.07;;;-0.30;99.90;;;;;;5050045;28;20527;-77
2023/01/20 08:38:44;;;;;;;102.47;45.10;;;0.00;99.90;;;;;;5049534;28;20056;-79
2023/01/20 08:41:22;;;;;;;97.10;46.00;;;-0.30;99.90;;;;;;5050103;28;20109;-75
2023/01/20 08:43:48;;;;;;;91.60;43.17;;;-0.30;99.90;;;;;;5051888;28;20040;-76
2023/01/20 08:46:16;;;;;;;95.97;44.87;;;-0.30;99.90;;;;;;5051450;28;20464;-80
2023/01/20 08:48:42;;;;;;;97.93;45.43;;;-0.20;99.90;;;;;;5049643;28;20040;-75
2023/01/20 08:51:13;;;;;;;95.00;45.37;;;-0.20;99.90;;;;;;5050868;28;20048;-78
2023/01/20 08:53:39;;;;;;;96.90;45.13;;;-0.20;99.90;;;;;;5049193;28;20045;-77
2023/01/20 08:56:05;;;;;;;104.07;46.00;;;-0.10;99.90;;;;;;5049751;28;20056;-80
2023/01/20 08:58:32;;;;;;;100.40;47.97;;;-0.20;99.90;;;;;;5050612;28;20052;-77
2023/01/20 09:00:57;;;;;;;100.07;45.57;;;-0.10;99.90;;;;;;5049694;28;20470;-75
2023/01/20 09:03:23;;;;;;;104.37;49.63;;;-0.10;99.90;;;;;;5050261;28;20041;-78
2023/01/20 09:05:49;;;;;;;97.37;45.37;;;-0.10;99.90;;;;;;5050297;28;20044;-76
2023/01/20 09:08:16;;;;;;;103.07;47.47;;;0.40;99.90;;;;;;5047722;28;20045;-76
2023/01/20 09:10:43;;;;;;;99.77;48.40;;;-0.10;99.90;;;;;;5051124;28;20156;-76
2023/01/20 09:13:08;;;;;;;100.33;46.53;;;-0.10;99.90;;;;;;5050533;28;20095;-75
2023/01/20 09:15:34;;;;;;;95.67;44.87;;;-0.10;99.90;;;;;;5050685;28;20128;-76
2023/01/20 09:18:00;;;;;;;95.67;45.80;;;0.00;99.90;;;;;;5050054;28;20044;-79
2023/01/20 09:20:27;;;;;;;95.97;46.73;;;0.30;99.90;;;;;;5051095;28;20387;-76
2023/01/20 09:22:53;;;;;;;96.33;45.27;;;0.00;99.90;;;;;;5032394;28;20044;-76
2023/01/20 09:25:19;;;;;;;95.53;43.93;;;0.00;99.90;;;;;;5050025;28;20049;-79
2023/01/20 09:27:45;;;;;;;88.17;44.27;;;0.00;99.90;;;;;;5048392;28;20425;-75
2023/01/20 09:30:11;;;;;;;98.17;45.27;;;0.20;99.90;;;;;;5050421;28;20066;-77
2023/01/20 09:32:37;;;;;;;88.10;44.93;;;0.00;99.90;;;;;;5048321;28;20053;-76
2023/01/20 09:35:03;;;;;;;92.63;42.83;;;0.00;99.90;;;;;;5049050;28;20086;-77
2023/01/20 09:46:24;;;;;;;98.33;55.37;;;0.60;99.90;;;;;;5050077;28;20064;-76
2023/01/20 09:54:42;;;;;;;91.10;41.80;;;0.10;99.90;;;;;;5050021;28;20107;-77
2023/01/20 09:57:11;;;;;;;89.72;44.95;;;0.10;99.90;;;;;;5047917;28;20094;-78
2023/01/20 09:59:43;;;;;;;96.43;44.53;;;0.10;99.90;;;;;;5048655;28;20062;-75
2023/01/20 10:02:17;;;;;;;;;;;0.60;99.90;;;;;;5049667;28;20048;-76
2023/01/20 10:04:57;;;;;;;93.77;43.07;;;0.10;99.90;;;;;;5049989;28;19937;-75
2023/01/20 10:07:36;;;;;;;92.70;43.50;;;0.20;99.90;;;;;;5048180;28;20068;-76
2023/01/20 10:10:27;;;;;;;88.07;44.83;;;0.10;99.90;;;;;;5047803;28;20156;-76
2023/01/20 10:13:09;;;;;;;74.13;33.67;;;0.10;99.90;;;;;;5045474;28;20064;-80
2023/01/20 10:15:36;;;;;;;92.17;43.47;;;0.10;99.90;;;;;;5048395;28;20044;-75
2023/01/20 10:18:27;;;;;;;92.13;43.00;;;0.20;99.90;;;;;;5048560;28;20057;-77
2023/01/20 10:21:19;;;;;;;88.60;41.67;;;0.20;99.90;;;;;;5049557;28;20067;-78
2023/01/20 10:23:50;;;;;;;;;;;0.20;99.90;;;;;;5045956;28;20054;-75
2023/01/20 10:26:18;;;;;;;95.57;36.53;;;0.30;99.90;;;;;;5048519;28;20555;-77
2023/01/20 10:28:56;;;;;;;92.93;42.10;;;0.30;99.90;;;;;;5030901;28;20849;-77
2023/01/20 10:31:27;;;;;;;94.13;42.37;;;0.30;99.90;;;;;;5048502;28;20505;-75
2023/01/20 10:34:00;;;;;;;99.00;43.30;;;0.30;99.90;;;;;;5047868;28;20051;-76
2023/01/20 10:36:30;;;;;;;96.73;43.07;;;0.30;99.90;;;;;;5047765;28;20064;-79
2023/01/20 10:39:27;;;;;;;102.73;44.07;;;0.40;99.90;;;;;;5048512;28;20052;-75
2023/01/20 10:42:03;;;;;;;98.50;42.53;;;0.40;99.90;;;;;;5048398;28;20036;-79
2023/01/20 10:44:33;;;;;;;91.73;42.47;;;0.40;99.90;;;;;;5047620;28;20048;-78
2023/01/20 10:47:16;;;;;;;98.80;42.20;;;0.50;99.90;;;;;;5047792;28;20102;-76
2023/01/20 10:49:42;;;;;;;84.50;40.97;;;0.50;99.90;;;;;;5049076;28;20070;-79
2023/01/20 10:52:35;;;;;;;88.53;41.60;;;0.50;99.90;;;;;;5047705;28;20128;-77
2023/01/20 10:55:18;;;;;;;94.03;42.10;;;0.50;99.90;;;;;;5048486;28;20135;-79
2023/01/20 10:57:48;;;;;;;94.47;42.80;;;0.50;99.90;;;;;;5048450;28;20135;-78
2023/01/20 11:00:27;;;;;;;91.07;42.97;;;0.50;99.90;;;;;;5048906;28;20086;-78
2023/01/20 11:02:57;;;;;;;89.93;41.77;;;0.50;99.90;;;;;;5048709;28;20067;-75
2023/01/20 11:05:35;;;;;;;99.80;44.40;;;0.50;99.90;;;;;;5048244;28;20059;-78
2023/01/20 11:08:06;;;;;;;95.07;42.47;;;0.70;99.90;;;;;;5046711;28;20061;-78
2023/01/20 11:10:32;;;;;;;97.00;42.47;;;0.60;99.90;;;;;;5048178;28;20486;-79
2023/01/20 11:13:00;;;;;;;88.97;41.47;;;0.60;99.90;;;;;;5048239;28;20139;-75
2023/01/20 11:15:44;;;;;;;87.53;40.70;;;0.60;99.90;;;;;;5047193;28;20160;-76
2023/01/20 11:18:15;;;;;;;76.43;37.47;;;0.60;99.90;;;;;;5046643;28;20528;-78
2023/01/20 11:20:44;;;;;;;;;;;0.60;99.90;;;;;;5050165;28;20442;-76
2023/01/20 11:23:36;;;;;;;89.87;37.27;;;0.60;99.90;;;;;;5048195;28;19920;-76
2023/01/20 11:26:21;;;;;;;80.53;37.20;;;0.60;99.90;;;;;;5047844;28;20060;-76
2023/01/20 11:28:59;;;;;;;88.07;38.43;;;0.60;99.90;;;;;;5048425;28;20099;-78
2023/01/20 11:31:52;;;;;;;79.67;36.17;;;0.60;99.90;;;;;;5049287;28;20056;-75
2023/01/20 11:34:24;;;;;;;74.53;35.30;;;0.70;99.90;;;;;;5046484;28;20045;-75
2023/01/20 11:37:33;;;;;;;77.80;37.10;;;0.60;99.90;;;;;;5047898;28;20064;-78
2023/01/20 11:40:02;;;;;;;73.00;33.67;;;0.60;99.90;;;;;;5045585;28;20137;-77
2023/01/20 11:42:41;;;;;;;72.77;36.00;;;0.80;99.90;;;;;;5047014;28;20068;-76
2023/01/20 11:45:22;;;;;;;72.63;35.43;;;0.60;99.90;;;;;;5048343;28;20080;-77
2023/01/20 11:48:13;;;;;;;71.93;34.20;;;0.60;99.90;;;;;;5047060;28;20504;-77
2023/01/20 11:50:46;;;;;;;71.78;34.35;;;0.60;99.90;;;;;;5046124;28;20167;-79
2023/01/20 11:53:15;;;;;;;74.77;35.87;;;0.60;99.90;;;;;;5047446;28;20481;-78
2023/01/20 11:55:49;;;;;;;80.73;36.83;;;0.70;99.90;;;;;;5045347;28;20476;-79
2023/01/20 11:58:27;;;;;;;77.73;37.67;;;0.60;99.90;;;;;;5047509;28;20063;-78
2023/01/20 12:01:05;;;;;;;89.30;44.67;;;0.60;99.90;;;;;;5048914;28;20518;-75
2023/01/20 12:03:40;;;;;;;84.17;38.40;;;0.50;99.90;;;;;;5050292;28;20040;-76
2023/01/20 12:06:17;;;;;;;78.00;37.63;;;0.50;99.90;;;;;;5050067;28;20977;-77
2023/01/20 12:08:51;;;;;;;77.80;34.40;;;0.40;99.90;;;;;;5049576;28;20092;-77
2023/01/20 12:11:26;;;;;;;75.53;35.33;;;0.50;99.90;;;;;;5050122;28;20052;-79
2023/01/20 12:14:19;;;;;;;79.37;35.03;;;0.40;99.90;;;;;;5067049;28;20389;-76
2023/01/20 12:17:03;;;;;;;78.10;37.37;;;0.40;99.90;;;;;;5052094;28;21070;-76
2023/01/20 12:19:39;;;;;;;73.83;34.60;;;0.60;99.90;;;;;;5052161;28;20555;-77
2023/01/20 12:22:13;;;;;;;78.30;36.00;;;0.40;99.90;;;;;;5051227;28;20133;-76
2023/01/20 12:25:06;;;;;;;70.93;35.63;;;0.50;99.90;;;;;;5033293;28;20110;-76
2023/01/20 12:27:33;;;;;;;75.83;36.23;;;0.40;99.90;;;;;;5050863;28;20057;-78
2023/01/20 12:30:03;;;;;;;76.50;34.87;;;0.50;99.90;;;;;;5052000;28;20056;-76
2023/01/20 12:32:30;;;;;;;76.50;35.80;;;0.50;99.90;;;;;;5049580;28;20052;-76
2023/01/20 12:34:56;;;;;;;78.97;35.00;;;0.40;99.90;;;;;;5050869;28;20376;-76
2023/01/20 12:37:27;;;;;;;74.60;34.10;;;0.40;99.90;;;;;;5050485;28;20063;-77
2023/01/20 12:40:03;;;;;;;77.40;37.30;;;0.50;99.90;;;;;;5049113;28;20057;-77
2023/01/20 12:42:38;;;;;;;83.53;37.20;;;0.50;99.90;;;;;;5050100;28;20040;-77
2023/01/20 12:45:27;;;;;;;76.13;36.53;;;0.50;99.90;;;;;;5050900;28;20063;-78
2023/01/20 12:48:22;;;;;;;77.13;36.50;;;0.50;99.90;;;;;;5041720;28;20056;-78
2023/01/20 12:51:05;;;;;;;76.53;36.93;;;0.50;99.90;;;;;;5049794;28;20058;-78
2023/01/20 12:53:40;;;;;;;75.57;36.53;;;0.50;99.90;;;;;;5049415;28;20056;-75
2023/01/20 12:56:33;;;;;;;80.43;37.23;;;0.50;99.90;;;;;;5048839;28;20623;-76
2023/01/20 12:59:35;;;;;;;81.83;38.87;;;0.50;99.90;;;;;;5050453;28;20417;-77
2023/01/20 13:02:19;;;;;;;81.90;37.67;;;0.50;99.90;;;;;;5048872;28;20147;-78